Time;durP1;ratioP1;P1;durP2;ratioP2;P2;SDS_P1;SDS_P2;PMS_P1;PMS_P2;Temp;Humidity;BMP_temperature;BMP_pressure;BME280_temperature;BME280_humidity;BME280_pressure;Samples;Min_cycle;Max_cycle;Signal;HPM_P1;HPM_P2
2021/05/26 00:01:22;;;;;;;1.20;0.65;;;11.90;74.00;;;;;;3580333;40;20033;-66
2021/05/26 00:03:48;;;;;;;0.68;0.60;;;11.90;74.00;;;;;;3581704;40;20084;-65
2021/05/26 00:06:14;;;;;;;0.50;0.50;;;11.90;74.00;;;;;;3581379;40;20036;-66
2021/05/26 00:08:40;;;;;;;1.27;0.65;;;11.90;73.90;;;;;;3579087;40;20044;-65
2021/05/26 00:11:08;;;;;;;1.20;0.43;;;11.90;74.00;;;;;;3576236;40;20032;-65
2021/05/26 00:13:35;;;;;;;2.47;0.60;;;11.90;73.70;;;;;;3579455;40;20037;-66
2021/05/26 00:16:01;;;;;;;0.43;0.43;;;11.90;73.70;;;;;;3581414;40;20413;-65
2021/05/26 00:18:27;;;;;;;0.85;0.52;;;11.80;73.60;;;;;;3581129;40;20087;-65
2021/05/26 00:20:53;;;;;;;2.17;0.75;;;11.80;74.20;;;;;;3578672;40;20045;-65
2021/05/26 00:23:19;;;;;;;0.95;0.70;;;11.80;73.70;;;;;;3576731;40;20032;-66
2021/05/26 00:25:45;;;;;;;2.15;0.52;;;11.80;73.50;;;;;;3577987;40;20581;-66
2021/05/26 00:28:11;;;;;;;0.73;0.52;;;11.70;74.00;;;;;;3579335;40;20025;-66
2021/05/26 00:30:44;;;;;;;0.95;0.68;;;11.70;74.60;;;;;;3580803;40;20060;-66
2021/05/26 00:33:11;;;;;;;5.40;0.60;;;11.60;75.00;;;;;;3577894;40;20049;-66
2021/05/26 00:35:36;;;;;;;1.02;0.70;;;11.50;75.20;;;;;;3570818;40;20102;-66
2021/05/26 00:38:05;;;;;;;0.50;0.50;;;11.50;75.50;;;;;;3578369;40;20029;-66
2021/05/26 00:40:31;;;;;;;0.98;0.52;;;11.50;75.50;;;;;;3580281;40;20048;-66
2021/05/26 00:42:57;;;;;;;2.35;0.65;;;11.40;75.90;;;;;;3570505;40;20025;-66
2021/05/26 00:45:23;;;;;;;1.70;0.63;;;11.40;75.90;;;;;;3573972;40;20029;-65
2021/05/26 00:47:50;;;;;;;2.00;0.70;;;11.40;76.10;;;;;;3575850;40;20321;-65
2021/05/26 00:50:20;;;;;;;0.98;0.75;;;11.40;75.80;;;;;;3578270;40;20051;-68
2021/05/26 00:52:46;;;;;;;1.48;0.55;;;11.30;76.30;;;;;;3580240;40;20041;-68
2021/05/26 00:55:18;;;;;;;2.92;0.80;;;11.30;76.20;;;;;;3580733;40;20025;-67
2021/05/26 00:57:46;;;;;;;2.95;0.80;;;11.30;76.30;;;;;;3578106;40;20073;-68
2021/05/26 01:00:20;;;;;;;2.63;0.70;;;11.30;76.30;;;;;;3576037;40;20507;-67
2021/05/26 01:02:52;;;;;;;1.52;0.65;;;11.40;76.20;;;;;;3573159;40;20025;-68
2021/05/26 01:05:21;;;;;;;1.55;0.65;;;11.30;76.00;;;;;;3571942;40;20082;-67
2021/05/26 01:07:47;;;;;;;1.48;0.90;;;11.30;76.30;;;;;;3579096;40;20113;-68
2021/05/26 01:10:16;;;;;;;1.45;0.60;;;11.30;76.70;;;;;;3577719;40;20060;-68
2021/05/26 01:12:58;;;;;;;1.60;0.60;;;11.40;76.60;;;;;;3573680;40;20037;-67
2021/05/26 01:15:24;;;;;;;1.63;0.80;;;11.40;76.40;;;;;;3577260;40;20033;-66
2021/05/26 01:17:52;;;;;;;1.08;0.73;;;11.40;76.90;;;;;;3580519;40;20142;-66
2021/05/26 01:20:27;;;;;;;1.02;0.60;;;11.50;76.20;;;;;;3580686;40;20040;-66
2021/05/26 01:22:53;;;;;;;1.85;0.80;;;11.50;76.50;;;;;;3570795;40;20057;-65
2021/05/26 01:25:20;;;;;;;2.47;0.95;;;11.50;76.70;;;;;;3575372;40;20024;-65
2021/05/26 01:27:47;;;;;;;0.93;0.60;;;11.50;77.40;;;;;;3577015;40;20078;-66
2021/05/26 01:30:14;;;;;;;1.83;0.68;;;11.50;77.20;;;;;;3571583;40;20122;-65
2021/05/26 01:32:44;;;;;;;2.72;0.70;;;11.50;77.30;;;;;;3570757;40;20044;-66
2021/05/26 01:35:14;;;;;;;1.48;0.85;;;11.40;77.40;;;;;;3574018;40;20039;-66
2021/05/26 01:37:43;;;;;;;1.35;0.90;;;11.40;77.30;;;;;;3575931;40;20040;-66
2021/05/26 01:40:11;;;;;;;1.63;0.70;;;11.40;77.60;;;;;;3577589;40;20714;-66
2021/05/26 01:42:37;;;;;;;1.27;0.60;;;11.40;77.70;;;;;;3571145;40;20037;-65
2021/05/26 01:45:06;;;;;;;1.13;0.70;;;11.50;77.40;;;;;;3571508;40;20114;-66
2021/05/26 01:47:33;;;;;;;0.60;0.60;;;11.50;77.30;;;;;;3573336;40;20486;-66
2021/05/26 01:49:59;;;;;;;4.13;0.82;;;11.50;76.80;;;;;;3575397;40;20086;-66
2021/05/26 01:52:25;;;;;;;2.03;0.60;;;11.60;76.90;;;;;;3576182;40;20088;-66
2021/05/26 01:54:51;;;;;;;2.33;0.75;;;11.60;76.50;;;;;;3578088;40;20044;-67
2021/05/26 01:57:17;;;;;;;2.15;0.70;;;11.60;77.20;;;;;;3569832;40;20068;-66
2021/05/26 01:59:43;;;;;;;1.80;0.80;;;11.60;77.20;;;;;;3572052;40;20163;-66
2021/05/26 02:02:13;;;;;;;2.05;0.80;;;11.70;76.50;;;;;;3573366;40;20041;-68
2021/05/26 02:04:40;;;;;;;0.63;0.50;;;11.60;76.90;;;;;;3573397;40;20043;-66
2021/05/26 02:07:08;;;;;;;1.30;0.65;;;11.60;77.10;;;;;;3576561;40;20033;-66
2021/05/26 02:09:35;;;;;;;1.17;0.80;;;11.60;76.90;;;;;;3578669;40;20102;-66
2021/05/26 02:14:51;;;;;;;1.13;0.70;;;11.50;77.40;;;;;;3575031;40;20036;-67
2021/05/26 02:17:19;;;;;;;3.90;0.90;;;11.50;77.70;;;;;;3574931;40;20040;-66
2021/05/26 02:19:46;;;;;;;2.40;1.23;;;11.50;77.70;;;;;;3573867;40;20896;-67
2021/05/26 02:22:12;;;;;;;1.45;0.75;;;11.50;77.30;;;;;;3578426;40;20041;-67
2021/05/26 02:24:39;;;;;;;2.28;0.90;;;11.40;77.60;;;;;;3573609;40;20218;-65
2021/05/26 02:27:06;;;;;;;1.45;0.70;;;11.50;77.80;;;;;;3572462;40;20044;-66
2021/05/26 02:29:32;;;;;;;2.45;0.77;;;11.50;77.80;;;;;;3576290;40;20017;-66
2021/05/26 02:31:58;;;;;;;1.60;0.70;;;11.50;77.40;;;;;;3573733;40;20056;-66
2021/05/26 02:34:25;;;;;;;1.38;0.80;;;11.50;77.60;;;;;;3574635;40;20068;-66
2021/05/26 02:36:53;;;;;;;1.13;0.70;;;11.50;77.90;;;;;;3576322;40;20033;-67
2021/05/26 02:39:20;;;;;;;2.35;0.82;;;11.60;77.60;;;;;;3575351;40;20334;-67
2021/05/26 02:41:46;;;;;;;1.27;0.70;;;11.70;77.10;;;;;;3575697;40;20384;-67
2021/05/26 02:44:15;;;;;;;1.25;0.82;;;11.60;77.40;;;;;;3578785;40;20636;-67
2021/05/26 02:46:41;;;;;;;1.13;0.68;;;11.50;77.60;;;;;;3570740;40;20092;-67
2021/05/26 02:49:07;;;;;;;2.15;0.82;;;11.50;77.70;;;;;;3578077;40;20087;-66
2021/05/26 02:51:34;;;;;;;1.73;0.57;;;11.60;77.20;;;;;;3573831;40;20025;-67
2021/05/26 02:54:02;;;;;;;1.17;0.77;;;11.60;77.30;;;;;;3573168;40;20041;-66
2021/05/26 02:56:28;;;;;;;0.80;0.68;;;11.60;77.20;;;;;;3575173;40;20043;-67
2021/05/26 02:59:14;;;;;;;2.00;0.70;;;11.60;77.20;;;;;;3578673;40;20041;-66
2021/05/26 03:02:08;;;;;;;1.40;0.50;;;11.50;77.10;;;;;;3578126;40;20139;-67
2021/05/26 03:04:42;;;;;;;3.72;0.98;;;11.60;77.40;;;;;;3574793;40;20044;-66
2021/05/26 03:07:08;;;;;;;1.13;0.73;;;11.50;77.50;;;;;;3576292;40;20029;-66
2021/05/26 03:09:33;;;;;;;1.45;0.80;;;11.60;77.20;;;;;;3575095;40;20025;-67
2021/05/26 03:11:59;;;;;;;1.55;0.85;;;11.60;77.20;;;;;;3577696;40;20032;-67
2021/05/26 03:14:38;;;;;;;1.52;0.80;;;11.60;78.00;;;;;;3573736;40;20037;-66
2021/05/26 03:17:09;;;;;;;0.50;0.50;;;11.60;78.00;;;;;;3578102;40;20045;-66
2021/05/26 03:19:35;;;;;;;1.38;0.80;;;11.60;77.80;;;;;;3575764;40;20028;-66
2021/05/26 03:22:23;;;;;;;1.85;0.80;;;11.70;77.60;;;;;;3574747;40;20126;-67
2021/05/26 03:25:10;;;;;;;1.70;0.75;;;11.70;77.50;;;;;;3577751;40;20040;-66
2021/05/26 03:27:37;;;;;;;1.48;0.90;;;11.70;77.10;;;;;;3575459;40;20169;-67
2021/05/26 03:30:15;;;;;;;1.08;0.80;;;11.70;77.20;;;;;;3577845;40;20330;-67
2021/05/26 03:32:42;;;;;;;2.22;0.90;;;11.70;77.50;;;;;;3577578;40;20102;-67
2021/05/26 03:35:09;;;;;;;1.52;0.90;;;11.70;77.00;;;;;;3577332;40;20019;-67
2021/05/26 03:37:36;;;;;;;3.78;0.85;;;11.70;77.30;;;;;;3580628;40;20045;-67
2021/05/26 03:40:03;;;;;;;1.67;0.80;;;11.70;77.40;;;;;;3578738;40;20032;-67
2021/05/26 03:42:29;;;;;;;2.35;0.90;;;11.70;77.40;;;;;;3579048;40;20029;-67
2021/05/26 03:44:55;;;;;;;0.85;0.82;;;11.80;76.90;;;;;;3576830;40;20371;-67
2021/05/26 03:47:21;;;;;;;1.42;0.73;;;11.80;76.80;;;;;;3573476;40;20063;-67
2021/05/26 03:49:48;;;;;;;4.10;0.75;;;11.80;76.60;;;;;;3572907;40;20299;-67
2021/05/26 03:52:14;;;;;;;0.70;0.60;;;11.90;76.40;;;;;;3578845;40;20052;-68
2021/05/26 03:54:44;;;;;;;1.27;0.73;;;11.90;76.60;;;;;;3574816;40;20114;-67
2021/05/26 03:57:10;;;;;;;1.83;0.95;;;12.00;76.20;;;;;;3575572;40;20066;-67
2021/05/26 03:59:38;;;;;;;1.73;0.80;;;12.00;76.10;;;;;;3574282;40;20607;-67
2021/05/26 04:02:04;;;;;;;1.92;0.93;;;12.00;76.00;;;;;;3577195;40;20036;-67
2021/05/26 04:04:30;;;;;;;2.67;1.27;;;12.00;76.50;;;;;;3564303;40;20021;-66
2021/05/26 04:07:01;;;;;;;2.13;1.25;;;12.10;76.00;;;;;;3575939;40;20049;-67
2021/05/26 04:09:30;;;;;;;0.93;0.80;;;12.20;76.40;;;;;;3576448;40;20068;-67
2021/05/26 04:11:57;;;;;;;0.98;0.80;;;12.20;75.50;;;;;;3579092;40;20040;-67
2021/05/26 04:14:52;;;;;;;1.30;0.65;;;12.30;75.50;;;;;;3581001;39;20048;-67
2021/05/26 04:17:50;;;;;;;1.60;0.90;;;12.30;75.80;;;;;;3566336;40;20134;-67
2021/05/26 04:20:24;;;;;;;3.80;1.00;;;12.40;74.40;;;;;;3573945;40;20295;-65
2021/05/26 04:22:51;;;;;;;1.42;0.90;;;12.40;74.20;;;;;;3574556;40;20039;-67
2021/05/26 04:25:18;;;;;;;0.90;0.90;;;12.40;74.20;;;;;;3572524;40;20056;-67
2021/05/26 04:27:46;;;;;;;3.42;1.20;;;12.40;75.10;;;;;;3577870;40;20025;-67
2021/05/26 04:30:13;;;;;;;1.35;0.75;;;12.50;74.60;;;;;;3573922;40;20025;-67
2021/05/26 04:32:42;;;;;;;2.50;1.15;;;12.60;73.90;;;;;;3575682;40;20031;-66
2021/05/26 04:35:09;;;;;;;5.50;0.88;;;12.60;73.60;;;;;;3576118;40;20017;-67
2021/05/26 04:37:34;;;;;;;1.67;0.82;;;12.60;74.00;;;;;;3579108;40;20066;-66
2021/05/26 04:40:00;;;;;;;4.00;1.02;;;12.60;74.10;;;;;;3578043;40;20291;-66
2021/05/26 04:42:26;;;;;;;1.77;0.90;;;12.70;73.20;;;;;;3575406;40;20130;-65
2021/05/26 04:44:52;;;;;;;2.75;1.05;;;12.60;73.20;;;;;;3574931;40;20037;-64
2021/05/26 04:47:18;;;;;;;5.07;1.27;;;12.60;73.50;;;;;;3576236;40;20312;-66
2021/05/26 04:49:43;;;;;;;2.05;1.10;;;12.60;74.00;;;;;;3579294;40;20013;-67
2021/05/26 04:52:09;;;;;;;2.85;0.90;;;12.60;74.00;;;;;;3581139;40;20040;-65
2021/05/26 04:54:35;;;;;;;2.72;0.80;;;12.50;73.80;;;;;;3578658;40;20369;-66
2021/05/26 04:57:01;;;;;;;2.03;1.00;;;12.70;73.10;;;;;;3575331;40;20090;-66
2021/05/26 04:59:26;;;;;;;4.60;1.10;;;12.60;72.60;;;;;;3577555;40;20032;-66
2021/05/26 05:01:52;;;;;;;2.17;0.93;;;12.60;73.90;;;;;;3578916;40;20098;-66
2021/05/26 05:04:18;;;;;;;4.95;1.00;;;12.60;73.70;;;;;;3575577;40;20043;-66
2021/05/26 05:06:43;;;;;;;1.13;0.80;;;12.60;73.20;;;;;;3575093;40;20406;-66
2021/05/26 05:09:10;;;;;;;1.80;0.88;;;12.70;73.10;;;;;;3572601;40;20032;-65
2021/05/26 05:11:36;;;;;;;2.25;1.10;;;12.80;73.60;;;;;;3576292;40;20037;-66
2021/05/26 05:14:02;;;;;;;1.80;0.85;;;12.80;73.10;;;;;;3574554;40;20065;-67
2021/05/26 05:16:28;;;;;;;1.35;1.05;;;12.90;73.20;;;;;;3576910;40;20509;-66
2021/05/26 05:18:54;;;;;;;2.72;1.08;;;13.00;72.30;;;;;;3577131;40;20044;-67
2021/05/26 05:21:21;;;;;;;3.50;1.20;;;13.00;71.60;;;;;;3576966;40;20519;-66
2021/05/26 05:23:47;;;;;;;2.92;1.10;;;12.90;72.00;;;;;;3575874;40;20025;-66
2021/05/26 05:26:13;;;;;;;3.92;1.40;;;12.90;72.20;;;;;;3576909;40;20041;-67
2021/05/26 05:28:38;;;;;;;1.13;0.90;;;12.90;72.70;;;;;;3576634;40;20033;-66
2021/05/26 05:31:04;;;;;;;2.28;1.20;;;12.90;72.40;;;;;;3570257;40;20543;-67
2021/05/26 05:33:30;;;;;;;3.08;1.10;;;13.00;72.60;;;;;;3576141;40;20149;-66
2021/05/26 05:35:56;;;;;;;5.03;1.25;;;13.10;72.00;;;;;;3575177;40;20039;-66
2021/05/26 05:38:21;;;;;;;2.95;1.25;;;13.20;71.10;;;;;;3570567;40;20138;-65
2021/05/26 05:40:48;;;;;;;4.18;1.13;;;13.30;70.90;;;;;;3572668;40;20029;-66
2021/05/26 05:43:14;;;;;;;2.92;1.23;;;13.10;70.60;;;;;;3573093;40;20049;-65
2021/05/26 05:45:40;;;;;;;2.03;1.33;;;13.00;72.10;;;;;;3575598;40;20032;-65
2021/05/26 05:48:06;;;;;;;3.05;1.30;;;13.20;72.10;;;;;;3576678;40;20288;-65
2021/05/26 05:50:32;;;;;;;4.60;1.30;;;13.40;70.70;;;;;;3575192;40;20117;-65
2021/05/26 05:52:58;;;;;;;4.22;1.45;;;13.50;70.90;;;;;;3572442;40;20036;-64
2021/05/26 05:55:24;;;;;;;2.13;1.00;;;13.70;70.00;;;;;;3567942;40;20029;-66
2021/05/26 05:57:50;;;;;;;2.78;0.95;;;13.80;70.10;;;;;;3578024;40;20020;-65
2021/05/26 06:00:16;;;;;;;2.17;0.90;;;14.10;68.60;;;;;;3577260;40;20037;-65
2021/05/26 06:02:43;;;;;;;3.72;0.98;;;14.30;67.10;;;;;;3575684;40;20060;-65
2021/05/26 06:05:12;;;;;;;1.88;1.02;;;14.30;66.90;;;;;;3573145;40;20146;-65
2021/05/26 06:07:38;;;;;;;4.75;1.48;;;14.30;65.80;;;;;;3578338;40;20813;-65
2021/05/26 06:10:04;;;;;;;4.18;1.80;;;14.10;65.50;;;;;;3573990;40;20040;-65
2021/05/26 06:12:30;;;;;;;3.33;1.45;;;14.10;65.60;;;;;;3573251;40;20041;-65
2021/05/26 06:14:56;;;;;;;2.35;1.08;;;14.20;65.80;;;;;;3575241;40;20039;-65
2021/05/26 06:17:21;;;;;;;2.78;1.00;;;14.30;65.90;;;;;;3571479;40;20655;-65
2021/05/26 06:19:47;;;;;;;4.28;1.08;;;14.50;65.10;;;;;;3575097;40;20302;-64
2021/05/26 06:22:13;;;;;;;2.40;1.05;;;14.70;65.20;;;;;;3579612;40;20126;-62
2021/05/26 06:24:41;;;;;;;1.02;0.82;;;14.90;63.60;;;;;;3577206;40;20130;-64
2021/05/26 06:27:06;;;;;;;2.00;1.20;;;14.90;62.40;;;;;;3574450;40;20049;-65
2021/05/26 06:29:32;;;;;;;3.88;1.23;;;14.80;62.50;;;;;;3575880;40;20020;-63
2021/05/26 06:31:58;;;;;;;4.38;1.20;;;14.80;63.30;;;;;;3573776;40;20033;-64
2021/05/26 06:34:24;;;;;;;3.47;1.00;;;14.80;62.20;;;;;;3571474;40;20044;-66
2021/05/26 06:36:49;;;;;;;2.50;1.00;;;14.80;62.50;;;;;;3573126;40;20031;-66
2021/05/26 06:39:15;;;;;;;3.30;1.27;;;14.80;63.50;;;;;;3574780;40;20040;-67
2021/05/26 06:41:41;;;;;;;4.20;1.48;;;14.80;62.20;;;;;;3577631;40;20429;-65
2021/05/26 06:44:07;;;;;;;3.60;1.40;;;14.70;61.30;;;;;;3581831;40;20130;-66
2021/05/26 06:46:32;;;;;;;7.93;3.28;;;14.70;62.60;;;;;;3576072;40;20489;-66
2021/05/26 06:48:58;;;;;;;5.22;1.52;;;14.80;62.20;;;;;;3576252;40;20073;-68
2021/05/26 06:51:24;;;;;;;3.63;1.40;;;14.80;61.30;;;;;;3576503;40;20319;-67
2021/05/26 06:53:49;;;;;;;2.53;1.40;;;14.90;61.70;;;;;;3578255;40;20103;-67
2021/05/26 06:56:15;;;;;;;3.35;1.30;;;15.10;62.50;;;;;;3578420;40;20018;-67
2021/05/26 06:58:41;;;;;;;3.20;1.20;;;15.30;61.40;;;;;;3581762;40;20047;-67
2021/05/26 07:01:07;;;;;;;3.30;1.30;;;15.60;61.00;;;;;;3579469;40;20040;-68
2021/05/26 07:03:33;;;;;;;3.78;1.10;;;15.90;61.40;;;;;;3576846;40;20033;-68
2021/05/26 07:05:58;;;;;;;3.40;1.08;;;16.10;58.70;;;;;;3577625;40;20094;-68
2021/05/26 07:08:24;;;;;;;3.65;1.33;;;16.20;58.00;;;;;;3579528;40;20129;-67
2021/05/26 07:10:50;;;;;;;3.45;1.20;;;16.20;58.70;;;;;;3581366;40;20055;-67
2021/05/26 07:13:16;;;;;;;2.28;1.13;;;16.30;57.70;;;;;;3580440;40;20618;-68
2021/05/26 07:15:42;;;;;;;3.17;1.02;;;16.20;58.50;;;;;;3577788;40;20028;-68
2021/05/26 07:18:09;;;;;;;2.72;1.08;;;16.20;57.80;;;;;;3575510;40;20044;-67
2021/05/26 07:20:35;;;;;;;2.05;1.00;;;16.00;58.20;;;;;;3575987;40;20130;-70
2021/05/26 07:23:01;;;;;;;7.45;2.05;;;15.90;58.50;;;;;;3571943;40;20050;-74
2021/05/26 07:25:27;;;;;;;10.93;1.45;;;15.80;60.20;;;;;;3575291;40;20134;-76
2021/05/26 07:27:53;;;;;;;2.20;1.15;;;15.80;60.80;;;;;;3578425;40;20065;-76
2021/05/26 07:30:20;;;;;;;1.77;1.55;;;15.80;60.90;;;;;;3578486;40;20406;-75
2021/05/26 07:32:48;;;;;;;1.92;1.00;;;16.00;60.10;;;;;;3581311;40;20040;-70
2021/05/26 07:35:14;;;;;;;3.92;1.27;;;16.10;58.60;;;;;;3577855;40;20045;-70
2021/05/26 07:37:40;;;;;;;3.78;1.02;;;16.20;58.00;;;;;;3577071;40;20036;-70
2021/05/26 07:40:10;;;;;;;1.70;0.80;;;16.30;57.80;;;;;;3578159;40;20024;-70
2021/05/26 07:42:36;;;;;;;5.88;1.00;;;16.40;55.90;;;;;;3577250;40;20739;-71
2021/05/26 07:45:03;;;;;;;4.88;1.00;;;16.50;57.10;;;;;;3574459;40;20042;-70
2021/05/26 07:47:28;;;;;;;1.80;0.90;;;16.60;55.30;;;;;;3572630;40;20331;-71
2021/05/26 07:49:54;;;;;;;3.92;1.10;;;16.50;56.70;;;;;;3573199;40;20044;-70
2021/05/26 07:52:21;;;;;;;3.85;1.20;;;16.50;57.60;;;;;;3574754;40;20037;-70
2021/05/26 07:54:48;;;;;;;3.03;1.13;;;16.60;56.80;;;;;;3577785;40;20028;-69
2021/05/26 07:57:13;;;;;;;4.72;0.93;;;16.50;56.70;;;;;;3578952;40;20284;-70
2021/05/26 07:59:39;;;;;;;4.65;1.02;;;16.40;56.40;;;;;;3579549;40;20023;-70
2021/05/26 08:02:05;;;;;;;1.80;1.00;;;16.40;57.20;;;;;;3579771;40;20506;-71
2021/05/26 08:04:31;;;;;;;4.38;1.00;;;16.30;56.50;;;;;;3579037;40;20045;-70
2021/05/26 08:06:56;;;;;;;1.80;0.80;;;16.20;57.60;;;;;;3577045;40;20056;-70
2021/05/26 08:09:22;;;;;;;1.23;1.00;;;16.20;57.70;;;;;;3574880;40;20040;-70
2021/05/26 08:11:47;;;;;;;2.58;1.00;;;16.10;57.60;;;;;;3572017;40;20060;-69
2021/05/26 08:14:13;;;;;;;4.55;1.00;;;16.00;56.20;;;;;;3572061;40;20044;-69
2021/05/26 08:16:39;;;;;;;1.63;0.82;;;15.90;56.20;;;;;;3574968;40;20759;-70
2021/05/26 08:19:04;;;;;;;3.10;1.20;;;16.10;56.30;;;;;;3576407;40;20334;-71
2021/05/26 08:21:30;;;;;;;2.15;0.85;;;16.30;54.80;;;;;;3577834;40;20040;-70
2021/05/26 08:23:56;;;;;;;3.20;0.90;;;16.30;54.80;;;;;;3579612;40;20349;-70
2021/05/26 08:26:22;;;;;;;1.27;0.68;;;16.20;55.30;;;;;;3581914;40;20044;-70
2021/05/26 08:28:52;;;;;;;2.63;1.02;;;16.40;55.70;;;;;;3579118;40;20051;-70
2021/05/26 08:31:19;;;;;;;4.35;0.95;;;16.50;55.20;;;;;;3577562;40;20138;-70
2021/05/26 08:33:46;;;;;;;4.63;1.10;;;16.30;54.80;;;;;;3549923;40;1067583;-69
2021/05/26 08:36:12;;;;;;;5.30;1.02;;;16.30;56.10;;;;;;3577840;40;20195;-70
2021/05/26 08:38:38;;;;;;;2.58;0.88;;;16.40;56.20;;;;;;3582209;40;20044;-70
2021/05/26 08:41:08;;;;;;;4.10;1.00;;;16.40;54.50;;;;;;3579743;40;20044;-69
2021/05/26 08:43:36;;;;;;;2.30;0.80;;;16.40;55.00;;;;;;3578549;40;20504;-69
2021/05/26 08:46:04;;;;;;;4.72;1.13;;;16.20;55.90;;;;;;3576112;40;20049;-71
2021/05/26 08:48:30;;;;;;;1.80;0.98;;;16.30;55.60;;;;;;3573887;40;20142;-70
2021/05/26 08:50:56;;;;;;;3.95;0.88;;;16.30;55.80;;;;;;3572218;40;20303;-70
2021/05/26 08:53:23;;;;;;;3.92;1.20;;;16.30;54.90;;;;;;3574380;40;20415;-71
2021/05/26 08:55:49;;;;;;;3.00;1.10;;;16.20;55.40;;;;;;3576930;40;20037;-70
2021/05/26 08:58:15;;;;;;;6.40;1.52;;;16.20;54.70;;;;;;3576019;40;20403;-69
2021/05/26 09:00:41;;;;;;;10.55;1.00;;;16.10;55.30;;;;;;3574219;40;20144;-68
2021/05/26 09:03:06;;;;;;;4.03;0.80;;;16.10;56.00;;;;;;3574662;40;20118;-68
2021/05/26 09:05:34;;;;;;;4.38;1.20;;;16.00;56.90;;;;;;3574408;40;20608;-69
2021/05/26 09:08:14;;;;;;;2.17;1.00;;;16.00;56.30;;;;;;3576328;40;20041;-68
2021/05/26 09:11:09;;;;;;;3.63;1.00;;;16.00;56.40;;;;;;3577275;40;20480;-69
2021/05/26 09:13:37;;;;;;;3.20;0.70;;;16.00;55.90;;;;;;3568372;40;20060;-70
2021/05/26 09:16:07;;;;;;;1.55;0.65;;;16.10;56.30;;;;;;3572625;40;20045;-70
2021/05/26 09:19:03;;;;;;;4.95;1.20;;;16.20;56.00;;;;;;3573576;40;20045;-69
2021/05/26 09:21:43;;;;;;;4.72;1.15;;;16.30;55.80;;;;;;3576950;40;20031;-68
2021/05/26 09:24:21;;;;;;;4.65;0.93;;;16.70;56.50;;;;;;3574076;40;20041;-69
2021/05/26 09:26:55;;;;;;;3.75;0.80;;;17.10;55.80;;;;;;3573474;40;20106;-70
2021/05/26 09:29:35;;;;;;;2.70;1.20;;;17.30;52.80;;;;;;3572338;40;20037;-70
2021/05/26 09:32:21;;;;;;;3.03;1.20;;;17.40;53.60;;;;;;3577419;40;20036;-70
2021/05/26 09:34:55;;;;;;;2.85;1.10;;;17.30;52.30;;;;;;3575665;40;20049;-69
2021/05/26 09:37:26;;;;;;;2.95;1.42;;;17.30;51.90;;;;;;3578021;40;20062;-70
2021/05/26 09:39:57;;;;;;;3.97;1.27;;;17.30;52.00;;;;;;3579919;40;20036;-71
2021/05/26 09:42:31;;;;;;;2.60;1.08;;;17.20;52.20;;;;;;3579877;40;20102;-69
2021/05/26 09:45:10;;;;;;;3.45;0.85;;;17.20;52.40;;;;;;3573197;40;20052;-70
2021/05/26 09:47:49;;;;;;;3.42;1.08;;;17.10;52.80;;;;;;3575771;40;20083;-70
2021/05/26 09:50:22;;;;;;;2.25;0.95;;;17.00;54.00;;;;;;3577334;40;20451;-70
2021/05/26 09:53:15;;;;;;;5.13;1.10;;;16.90;53.30;;;;;;3580972;40;20049;-69
2021/05/26 09:55:47;;;;;;;1.90;1.05;;;16.90;53.60;;;;;;3578992;40;20044;-70
2021/05/26 09:58:17;;;;;;;3.38;1.17;;;16.80;54.70;;;;;;3576530;40;20044;-70
2021/05/26 10:00:45;;;;;;;3.38;1.20;;;16.60;55.90;;;;;;3575742;40;20029;-69
2021/05/26 10:03:12;;;;;;;3.70;0.95;;;16.60;57.20;;;;;;3570030;40;20040;-70
2021/05/26 10:05:37;;;;;;;3.85;0.80;;;16.40;56.50;;;;;;3570333;40;20275;-70
2021/05/26 10:08:22;;;;;;;3.47;1.48;;;16.40;56.40;;;;;;3572294;40;20111;-69
2021/05/26 10:10:59;;;;;;;4.40;1.00;;;16.20;56.70;;;;;;3574798;40;20060;-70
2021/05/26 10:13:26;;;;;;;3.85;1.10;;;16.20;57.50;;;;;;3573726;40;20071;-70
2021/05/26 10:15:52;;;;;;;2.60;0.90;;;16.30;58.20;;;;;;3578408;40;20110;-69
2021/05/26 10:18:18;;;;;;;6.53;1.10;;;16.40;56.70;;;;;;3580600;40;20120;-70
2021/05/26 10:20:45;;;;;;;6.00;1.05;;;16.60;58.30;;;;;;3578494;40;20109;-70
2021/05/26 10:23:16;;;;;;;2.38;1.20;;;16.90;58.30;;;;;;3576304;40;20629;-69
2021/05/26 10:25:44;;;;;;;6.03;1.10;;;17.00;55.50;;;;;;3569639;40;20032;-70
2021/05/26 10:28:30;;;;;;;3.00;1.17;;;17.30;56.00;;;;;;3578596;40;20094;-70
2021/05/26 10:30:58;;;;;;;5.43;1.02;;;17.40;55.80;;;;;;3578535;40;20068;-70
2021/05/26 10:33:42;;;;;;;3.38;1.20;;;17.50;54.10;;;;;;3578231;40;20029;-69
2021/05/26 10:36:10;;;;;;;3.30;1.17;;;17.60;53.70;;;;;;3574756;40;20033;-70
2021/05/26 10:38:54;;;;;;;2.53;1.05;;;17.70;53.10;;;;;;3576668;40;20033;-69
2021/05/26 10:41:20;;;;;;;2.65;0.93;;;17.80;52.90;;;;;;3573594;40;20721;-70
2021/05/26 10:43:53;;;;;;;2.80;1.08;;;17.90;52.10;;;;;;3578579;40;20088;-70
2021/05/26 10:46:49;;;;;;;3.42;1.10;;;18.10;51.00;;;;;;3578609;40;20074;-71
2021/05/26 10:49:15;;;;;;;3.90;1.00;;;18.30;51.90;;;;;;3574094;40;20060;-72
2021/05/26 10:51:53;;;;;;;3.50;1.05;;;18.10;50.30;;;;;;3575792;40;20028;-71
2021/05/26 10:54:50;;;;;;;2.25;0.80;;;17.90;50.60;;;;;;3579810;40;20028;-71
2021/05/26 10:57:16;;;;;;;1.85;1.20;;;18.00;51.20;;;;;;3579688;40;20044;-70
2021/05/26 11:00:20;;;;;;;4.57;1.00;;;18.30;51.30;;;;;;3576192;40;20377;-71
2021/05/26 11:03:24;;;;;;;5.78;1.23;;;18.60;50.00;;;;;;3576403;40;20029;-71
2021/05/26 11:05:51;;;;;;;3.40;1.00;;;18.80;49.20;;;;;;3574145;40;20084;-70
2021/05/26 11:08:32;;;;;;;1.83;0.63;;;18.60;50.00;;;;;;3571927;40;20044;-70
2021/05/26 11:11:18;;;;;;;1.45;0.70;;;18.50;49.20;;;;;;3573213;40;20061;-70
2021/05/26 11:16:42;;;;;;;3.17;0.98;;;18.20;52.10;;;;;;3574170;40;20036;-70
2021/05/26 11:19:17;;;;;;;3.38;0.80;;;18.20;51.10;;;;;;3573092;40;20025;-71
2021/05/26 11:21:57;;;;;;;5.40;0.70;;;18.40;50.70;;;;;;3570400;40;20096;-70
2021/05/26 11:24:26;;;;;;;5.75;1.05;;;18.50;49.40;;;;;;3578736;40;20029;-70
2021/05/26 11:26:52;;;;;;;4.35;0.77;;;18.40;49.20;;;;;;3575547;40;20032;-70
2021/05/26 11:29:34;;;;;;;3.67;0.90;;;18.30;50.40;;;;;;3578206;40;20060;-71
2021/05/26 11:32:06;;;;;;;2.33;0.88;;;18.40;50.80;;;;;;3577023;40;20101;-71
2021/05/26 11:34:34;;;;;;;1.45;0.60;;;18.30;49.60;;;;;;3578079;40;20048;-70
2021/05/26 11:37:00;;;;;;;4.72;0.80;;;18.30;50.00;;;;;;3579083;40;20047;-70
2021/05/26 11:39:28;;;;;;;0.85;0.47;;;18.40;49.50;;;;;;3576838;40;20035;-71
2021/05/26 11:42:14;;;;;;;1.77;0.68;;;18.50;50.80;;;;;;3573726;40;20374;-71
2021/05/26 11:44:41;;;;;;;;;;;18.70;49.40;;;;;;3573295;40;20389;-68
2021/05/26 11:47:07;;;;;;;1.27;0.77;;;18.70;48.70;;;;;;3577632;40;20226;-71
2021/05/26 11:49:39;;;;;;;1.02;0.55;;;18.80;49.10;;;;;;3579476;40;20041;-69
2021/05/26 11:52:10;;;;;;;1.50;0.43;;;18.80;49.20;;;;;;3574778;40;20137;-71
2021/05/26 11:54:52;;;;;;;1.02;0.55;;;18.70;48.70;;;;;;3579462;40;20025;-70
2021/05/26 11:57:17;;;;;;;0.85;0.43;;;18.50;48.60;;;;;;3580807;40;20036;-70
2021/05/26 11:59:51;;;;;;;1.58;0.40;;;18.50;50.10;;;;;;3581357;40;20098;-70
2021/05/26 12:02:16;;;;;;;2.58;0.45;;;18.40;49.00;;;;;;3580181;40;20319;-70
2021/05/26 12:04:42;;;;;;;2.67;0.50;;;18.30;49.70;;;;;;3577412;40;20024;-70
2021/05/26 12:07:09;;;;;;;0.80;0.32;;;18.30;50.00;;;;;;3576054;40;20016;-70
2021/05/26 12:09:34;;;;;;;0.82;0.28;;;18.40;48.50;;;;;;3574135;40;20037;-70
2021/05/26 12:12:14;;;;;;;1.60;0.35;;;18.30;47.80;;;;;;3573003;40;20307;-70
2021/05/26 12:14:41;;;;;;;2.25;0.30;;;18.40;48.50;;;;;;3574685;40;20037;-69
2021/05/26 12:17:07;;;;;;;1.08;0.35;;;18.40;48.00;;;;;;3576131;40;20036;-70
2021/05/26 12:19:34;;;;;;;0.75;0.22;;;18.30;48.60;;;;;;3575508;40;20298;-69
2021/05/26 12:22:21;;;;;;;0.43;0.30;;;18.30;47.80;;;;;;3573900;40;20391;-69
2021/05/26 12:24:59;;;;;;;3.65;0.35;;;18.50;48.60;;;;;;3572919;40;20126;-70
2021/05/26 12:27:45;;;;;;;0.50;0.15;;;18.40;49.10;;;;;;3574825;40;20091;-70
2021/05/26 12:30:28;;;;;;;1.10;0.40;;;18.60;48.00;;;;;;3575750;40;20053;-70
2021/05/26 12:33:13;;;;;;;1.95;0.30;;;18.60;49.00;;;;;;3574684;40;20695;-71
2021/05/26 12:35:39;;;;;;;0.65;0.20;;;18.50;49.40;;;;;;3573237;40;20044;-71
2021/05/26 12:38:20;;;;;;;0.70;0.17;;;18.40;49.70;;;;;;3573186;40;20126;-69
2021/05/26 12:40:47;;;;;;;0.50;0.30;;;18.10;49.40;;;;;;3575411;40;20288;-70
2021/05/26 12:43:30;;;;;;;3.42;1.35;;;18.00;50.40;;;;;;3576600;40;20029;-70
2021/05/26 12:45:57;;;;;;;0.32;0.30;;;18.00;52.90;;;;;;3574746;40;20561;-69
2021/05/26 12:48:29;;;;;;;1.02;0.30;;;18.20;50.60;;;;;;3581489;40;20021;-69
2021/05/26 12:51:00;;;;;;;1.45;0.17;;;18.30;51.50;;;;;;3580288;40;20037;-69
2021/05/26 12:53:32;;;;;;;0.30;0.30;;;18.40;48.20;;;;;;3578636;40;20785;-69
2021/05/26 12:55:58;;;;;;;0.77;0.30;;;18.50;48.20;;;;;;3576649;40;20033;-69
2021/05/26 12:58:24;;;;;;;2.15;0.43;;;18.50;47.90;;;;;;3572832;40;20036;-70
2021/05/26 13:00:50;;;;;;;1.52;0.10;;;18.60;48.40;;;;;;3574734;40;20583;-70
2021/05/26 13:03:21;;;;;;;0.20;0.10;;;18.60;47.80;;;;;;3575651;40;20061;-70
2021/05/26 13:05:49;;;;;;;4.72;0.52;;;18.70;50.70;;;;;;3576043;40;20040;-70